sensor_id;sensor_type;location;lat;lon;timestamp;temperature;humidity
23251;DHT22;11794;49.730;10.088;2023-08-08T00:00:14;13.10;99.90
23251;DHT22;11794;49.730;10.088;2023-08-08T00:02:40;13.10;99.90
23251;DHT22;11794;49.730;10.088;2023-08-08T00:05:05;13.20;99.90
23251;DHT22;11794;49.730;10.088;2023-08-08T00:07:31;13.30;99.90
23251;DHT22;11794;49.730;10.088;2023-08-08T00:09:57;13.20;99.90
23251;DHT22;11794;49.730;10.088;2023-08-08T00:12:23;13.30;99.90
23251;DHT22;11794;49.730;10.088;2023-08-08T00:14:48;13.30;99.90
23251;DHT22;11794;49.730;10.088;2023-08-08T00:17:14;13.30;99.90
23251;DHT22;11794;49.730;10.088;2023-08-08T00:19:40;13.40;99.90
23251;DHT22;11794;49.730;10.088;2023-08-08T00:22:05;13.40;99.90
23251;DHT22;11794;49.730;10.088;2023-08-08T00:24:31;13.30;99.90
23251;DHT22;11794;49.730;10.088;2023-08-08T00:26:57;13.30;99.90
23251;DHT22;11794;49.730;10.088;2023-08-08T00:29:22;13.30;99.90
23251;DHT22;11794;49.730;10.088;2023-08-08T00:31:48;13.30;99.90
23251;DHT22;11794;49.730;10.088;2023-08-08T00:34:13;13.30;99.90
23251;DHT22;11794;49.730;10.088;2023-08-08T00:36:39;13.30;99.90
23251;DHT22;11794;49.730;10.088;2023-08-08T00:39:04;13.30;99.90
23251;DHT22;11794;49.730;10.088;2023-08-08T00:41:30;13.20;99.90
23251;DHT22;11794;49.730;10.088;2023-08-08T00:43:55;13.20;99.90
23251;DHT22;11794;49.730;10.088;2023-08-08T00:46:21;13.20;99.90
23251;DHT22;11794;49.730;10.088;2023-08-08T00:48:47;13.20;99.90
23251;DHT22;11794;49.730;10.088;2023-08-08T00:51:13;13.20;99.90
23251;DHT22;11794;49.730;10.088;2023-08-08T00:53:39;13.10;99.90
23251;DHT22;11794;49.730;10.088;2023-08-08T00:56:05;13.20;99.90
23251;DHT22;11794;49.730;10.088;2023-08-08T00:58:30;13.20;99.90
23251;DHT22;11794;49.730;10.088;2023-08-08T01:00:56;13.20;99.90
23251;DHT22;11794;49.730;10.088;2023-08-08T01:03:25;13.20;99.90
23251;DHT22;11794;49.730;10.088;2023-08-08T01:06:02;13.20;99.90
23251;DHT22;11794;49.730;10.088;2023-08-08T01:08:35;13.20;99.90
23251;DHT22;11794;49.730;10.088;2023-08-08T01:11:05;13.20;99.90
23251;DHT22;11794;49.730;10.088;2023-08-08T01:13:31;13.10;99.90
23251;DHT22;11794;49.730;10.088;2023-08-08T01:15:57;13.10;99.90
23251;DHT22;11794;49.730;10.088;2023-08-08T01:18:24;13.20;99.90
23251;DHT22;11794;49.730;10.088;2023-08-08T01:20:52;13.20;99.90
23251;DHT22;11794;49.730;10.088;2023-08-08T01:23:33;13.20;99.90
23251;DHT22;11794;49.730;10.088;2023-08-08T01:25:59;13.20;99.90
23251;DHT22;11794;49.730;10.088;2023-08-08T01:28:25;13.20;99.90
23251;DHT22;11794;49.730;10.088;2023-08-08T01:30:51;13.10;99.90
23251;DHT22;11794;49.730;10.088;2023-08-08T01:33:17;13.20;99.90
23251;DHT22;11794;49.730;10.088;2023-08-08T01:38:49;13.10;99.90
23251;DHT22;11794;49.730;10.088;2023-08-08T01:41:16;13.10;99.90
23251;DHT22;11794;49.730;10.088;2023-08-08T01:43:42;13.10;99.90
23251;DHT22;11794;49.730;10.088;2023-08-08T01:46:08;13.10;99.90
23251;DHT22;11794;49.730;10.088;2023-08-08T01:48:34;13.10;99.90
23251;DHT22;11794;49.730;10.088;2023-08-08T01:50:59;13.20;99.90
23251;DHT22;11794;49.730;10.088;2023-08-08T01:53:25;13.10;99.90
23251;DHT22;11794;49.730;10.088;2023-08-08T01:55:51;13.10;99.90
23251;DHT22;11794;49.730;10.088;2023-08-08T01:58:18;13.00;99.90
23251;DHT22;11794;49.730;10.088;2023-08-08T02:00:43;12.90;99.90
23251;DHT22;11794;49.730;10.088;2023-08-08T02:03:10;12.90;99.90
23251;DHT22;11794;49.730;10.088;2023-08-08T02:05:36;12.90;99.90
23251;DHT22;11794;49.730;10.088;2023-08-08T02:08:02;12.90;99.90
23251;DHT22;11794;49.730;10.088;2023-08-08T02:10:28;12.80;99.90
23251;DHT22;11794;49.730;10.088;2023-08-08T02:12:54;12.80;99.90
23251;DHT22;11794;49.730;10.088;2023-08-08T02:15:19;12.80;99.90
23251;DHT22;11794;49.730;10.088;2023-08-08T02:17:45;12.80;99.90
23251;DHT22;11794;49.730;10.088;2023-08-08T02:20:11;12.80;99.90
23251;DHT22;11794;49.730;10.088;2023-08-08T02:22:37;12.70;99.90
23251;DHT22;11794;49.730;10.088;2023-08-08T02:25:03;12.70;99.90
23251;DHT22;11794;49.730;10.088;2023-08-08T02:27:29;12.70;99.90
23251;DHT22;11794;49.730;10.088;2023-08-08T02:29:54;12.70;99.90
23251;DHT22;11794;49.730;10.088;2023-08-08T02:32:20;12.70;99.90
23251;DHT22;11794;49.730;10.088;2023-08-08T02:34:45;12.60;99.90
23251;DHT22;11794;49.730;10.088;2023-08-08T02:37:11;12.60;99.90
23251;DHT22;11794;49.730;10.088;2023-08-08T02:39:36;12.60;99.90
23251;DHT22;11794;49.730;10.088;2023-08-08T02:42:02;12.60;99.90
23251;DHT22;11794;49.730;10.088;2023-08-08T02:44:28;12.60;99.90
23251;DHT22;11794;49.730;10.088;2023-08-08T02:46:53;12.50;99.90
23251;DHT22;11794;49.730;10.088;2023-08-08T02:49:19;12.50;99.90
23251;DHT22;11794;49.730;10.088;2023-08-08T02:51:44;12.40;99.90
23251;DHT22;11794;49.730;10.088;2023-08-08T02:54:10;12.40;99.90
23251;DHT22;11794;49.730;10.088;2023-08-08T02:56:35;12.40;99.90
23251;DHT22;11794;49.730;10.088;2023-08-08T02:59:01;12.30;99.90
23251;DHT22;11794;49.730;10.088;2023-08-08T03:01:26;12.40;99.90
23251;DHT22;11794;49.730;10.088;2023-08-08T03:03:52;12.30;99.90
23251;DHT22;11794;49.730;10.088;2023-08-08T03:06:17;12.20;99.90
23251;DHT22;11794;49.730;10.088;2023-08-08T03:08:43;12.30;99.90
23251;DHT22;11794;49.730;10.088;2023-08-08T03:11:08;12.20;99.90
23251;DHT22;11794;49.730;10.088;2023-08-08T03:13:34;12.20;99.90
23251;DHT22;11794;49.730;10.088;2023-08-08T03:16:00;12.10;99.90
23251;DHT22;11794;49.730;10.088;2023-08-08T03:18:25;12.10;99.90
23251;DHT22;11794;49.730;10.088;2023-08-08T03:20:51;12.10;99.90
23251;DHT22;11794;49.730;10.088;2023-08-08T03:23:17;12.10;99.90
23251;DHT22;11794;49.730;10.088;2023-08-08T03:25:43;12.10;99.90
23251;DHT22;11794;49.730;10.088;2023-08-08T03:28:08;12.00;99.90
23251;DHT22;11794;49.730;10.088;2023-08-08T03:30:36;12.00;99.90
23251;DHT22;11794;49.730;10.088;2023-08-08T03:33:03;12.10;99.90
23251;DHT22;11794;49.730;10.088;2023-08-08T03:35:28;12.10;99.90
23251;DHT22;11794;49.730;10.088;2023-08-08T03:37:54;12.00;99.90
23251;DHT22;11794;49.730;10.088;2023-08-08T03:40:19;12.10;99.90
23251;DHT22;11794;49.730;10.088;2023-08-08T03:42:45;12.10;99.90
23251;DHT22;11794;49.730;10.088;2023-08-08T03:45:10;12.10;99.90
23251;DHT22;11794;49.730;10.088;2023-08-08T03:47:36;12.10;99.90
23251;DHT22;11794;49.730;10.088;2023-08-08T03:50:03;12.10;99.90
23251;DHT22;11794;49.730;10.088;2023-08-08T03:52:30;12.10;99.90
23251;DHT22;11794;49.730;10.088;2023-08-08T03:54:55;12.10;99.90
23251;DHT22;11794;49.730;10.088;2023-08-08T03:57:21;12.10;99.90
23251;DHT22;11794;49.730;10.088;2023-08-08T03:59:46;12.10;99.90
23251;DHT22;11794;49.730;10.088;2023-08-08T04:02:12;12.10;99.90
23251;DHT22;11794;49.730;10.088;2023-08-08T04:04:37;12.10;99.90
23251;DHT22;11794;49.730;10.088;2023-08-08T04:07:04;12.20;99.90
23251;DHT22;11794;49.730;10.088;2023-08-08T04:09:29;12.20;99.90
23251;DHT22;11794;49.730;10.088;2023-08-08T04:11:55;12.20;99.90
23251;DHT22;11794;49.730;10.088;2023-08-08T04:14:20;12.10;99.90
23251;DHT22;11794;49.730;10.088;2023-08-08T04:16:46;12.10;99.90
23251;DHT22;11794;49.730;10.088;2023-08-08T04:19:11;12.10;99.90
23251;DHT22;11794;49.730;10.088;2023-08-08T04:21:37;12.00;99.90
23251;DHT22;11794;49.730;10.088;2023-08-08T04:24:03;12.00;99.90
23251;DHT22;11794;49.730;10.088;2023-08-08T04:26:28;12.00;99.90
23251;DHT22;11794;49.730;10.088;2023-08-08T04:28:54;11.90;99.90
23251;DHT22;11794;49.730;10.088;2023-08-08T04:31:20;11.80;99.90
23251;DHT22;11794;49.730;10.088;2023-08-08T04:33:48;11.80;99.90
23251;DHT22;11794;49.730;10.088;2023-08-08T04:36:14;11.70;99.90
23251;DHT22;11794;49.730;10.088;2023-08-08T04:38:39;11.70;99.90
23251;DHT22;11794;49.730;10.088;2023-08-08T04:41:05;11.70;99.90
23251;DHT22;11794;49.730;10.088;2023-08-08T04:43:30;11.70;99.90
23251;DHT22;11794;49.730;10.088;2023-08-08T04:45:56;11.70;99.90
23251;DHT22;11794;49.730;10.088;2023-08-08T04:48:21;11.60;99.90
23251;DHT22;11794;49.730;10.088;2023-08-08T04:50:47;11.70;99.90
23251;DHT22;11794;49.730;10.088;2023-08-08T04:53:13;11.60;99.90
23251;DHT22;11794;49.730;10.088;2023-08-08T04:55:38;11.70;99.90
23251;DHT22;11794;49.730;10.088;2023-08-08T04:58:04;11.70;99.90
23251;DHT22;11794;49.730;10.088;2023-08-08T05:00:30;11.70;99.90
23251;DHT22;11794;49.730;10.088;2023-08-08T05:02:56;11.80;99.90
23251;DHT22;11794;49.730;10.088;2023-08-08T05:05:21;11.80;99.90
23251;DHT22;11794;49.730;10.088;2023-08-08T05:07:47;12.00;99.90
23251;DHT22;11794;49.730;10.088;2023-08-08T05:10:12;12.10;99.90
23251;DHT22;11794;49.730;10.088;2023-08-08T05:12:38;12.10;99.90
23251;DHT22;11794;49.730;10.088;2023-08-08T05:15:05;12.20;99.90
23251;DHT22;11794;49.730;10.088;2023-08-08T05:17:31;12.30;99.90
23251;DHT22;11794;49.730;10.088;2023-08-08T05:19:59;12.30;99.90
23251;DHT22;11794;49.730;10.088;2023-08-08T05:22:25;12.40;99.90
23251;DHT22;11794;49.730;10.088;2023-08-08T05:24:50;12.40;99.90
23251;DHT22;11794;49.730;10.088;2023-08-08T05:27:16;12.50;99.90
23251;DHT22;11794;49.730;10.088;2023-08-08T05:29:41;12.50;99.90
23251;DHT22;11794;49.730;10.088;2023-08-08T05:32:07;12.60;99.90
23251;DHT22;11794;49.730;10.088;2023-08-08T05:34:34;12.70;99.90
23251;DHT22;11794;49.730;10.088;2023-08-08T05:36:59;12.70;99.90
23251;DHT22;11794;49.730;10.088;2023-08-08T05:39:25;12.80;99.90
23251;DHT22;11794;49.730;10.088;2023-08-08T05:41:51;12.90;99.90
23251;DHT22;11794;49.730;10.088;2023-08-08T05:44:17;12.90;99.90
23251;DHT22;11794;49.730;10.088;2023-08-08T05:46:42;13.00;99.90
23251;DHT22;11794;49.730;10.088;2023-08-08T05:49:08;13.10;99.90
23251;DHT22;11794;49.730;10.088;2023-08-08T05:51:34;13.20;99.90
23251;DHT22;11794;49.730;10.088;2023-08-08T05:53:59;13.30;99.90
23251;DHT22;11794;49.730;10.088;2023-08-08T05:56:25;13.30;99.90
23251;DHT22;11794;49.730;10.088;2023-08-08T05:58:50;13.40;99.90
23251;DHT22;11794;49.730;10.088;2023-08-08T06:01:16;13.60;99.90
23251;DHT22;11794;49.730;10.088;2023-08-08T06:03:41;13.60;99.90
23251;DHT22;11794;49.730;10.088;2023-08-08T06:06:07;13.80;99.90
23251;DHT22;11794;49.730;10.088;2023-08-08T06:08:33;13.80;99.90
23251;DHT22;11794;49.730;10.088;2023-08-08T06:10:59;13.90;99.90
23251;DHT22;11794;49.730;10.088;2023-08-08T06:13:24;13.90;99.90
23251;DHT22;11794;49.730;10.088;2023-08-08T06:15:50;14.00;99.90
23251;DHT22;11794;49.730;10.088;2023-08-08T06:18:16;14.10;99.90
23251;DHT22;11794;49.730;10.088;2023-08-08T06:20:42;14.10;99.90
23251;DHT22;11794;49.730;10.088;2023-08-08T06:23:08;14.20;99.90
23251;DHT22;11794;49.730;10.088;2023-08-08T06:25:33;14.30;99.90
23251;DHT22;11794;49.730;10.088;2023-08-08T06:27:59;14.40;99.90
23251;DHT22;11794;49.730;10.088;2023-08-08T06:30:24;14.40;99.90
23251;DHT22;11794;49.730;10.088;2023-08-08T06:32:50;14.60;99.90
23251;DHT22;11794;49.730;10.088;2023-08-08T06:35:15;14.60;99.90
23251;DHT22;11794;49.730;10.088;2023-08-08T06:37:42;14.70;99.90
23251;DHT22;11794;49.730;10.088;2023-08-08T06:40:09;14.80;99.90
23251;DHT22;11794;49.730;10.088;2023-08-08T06:42:36;14.90;99.90
23251;DHT22;11794;49.730;10.088;2023-08-08T06:45:01;14.90;99.90
23251;DHT22;11794;49.730;10.088;2023-08-08T06:47:27;15.00;99.90
23251;DHT22;11794;49.730;10.088;2023-08-08T06:49:52;15.10;99.90
23251;DHT22;11794;49.730;10.088;2023-08-08T06:52:18;15.20;99.90
23251;DHT22;11794;49.730;10.088;2023-08-08T06:54:43;15.30;99.90
23251;DHT22;11794;49.730;10.088;2023-08-08T06:57:09;15.30;99.90
23251;DHT22;11794;49.730;10.088;2023-08-08T06:59:34;15.60;99.90
23251;DHT22;11794;49.730;10.088;2023-08-08T07:02:00;15.60;99.90
23251;DHT22;11794;49.730;10.088;2023-08-08T07:04:26;15.60;99.90
23251;DHT22;11794;49.730;10.088;2023-08-08T07:06:51;15.70;99.90
23251;DHT22;11794;49.730;10.088;2023-08-08T07:09:17;15.70;99.90
23251;DHT22;11794;49.730;10.088;2023-08-08T07:11:42;15.80;99.90
23251;DHT22;11794;49.730;10.088;2023-08-08T07:14:08;16.00;99.90
23251;DHT22;11794;49.730;10.088;2023-08-08T07:16:34;16.10;99.90
23251;DHT22;11794;49.730;10.088;2023-08-08T07:18:59;16.20;99.90
23251;DHT22;11794;49.730;10.088;2023-08-08T07:21:25;16.30;99.90
23251;DHT22;11794;49.730;10.088;2023-08-08T07:23:51;16.30;99.90
23251;DHT22;11794;49.730;10.088;2023-08-08T07:26:17;16.40;99.90
23251;DHT22;11794;49.730;10.088;2023-08-08T07:28:42;16.50;99.90
23251;DHT22;11794;49.730;10.088;2023-08-08T07:31:08;16.60;99.90
23251;DHT22;11794;49.730;10.088;2023-08-08T07:33:33;16.50;99.90
23251;DHT22;11794;49.730;10.088;2023-08-08T07:35:59;16.50;99.90
23251;DHT22;11794;49.730;10.088;2023-08-08T07:38:24;16.50;99.90
23251;DHT22;11794;49.730;10.088;2023-08-08T07:40:50;16.60;99.90
23251;DHT22;11794;49.730;10.088;2023-08-08T07:43:15;16.80;99.90
23251;DHT22;11794;49.730;10.088;2023-08-08T07:45:41;17.00;99.90
23251;DHT22;11794;49.730;10.088;2023-08-08T07:48:08;17.30;99.90
23251;DHT22;11794;49.730;10.088;2023-08-08T07:50:33;17.60;99.90
23251;DHT22;11794;49.730;10.088;2023-08-08T07:52:59;17.80;99.90
23251;DHT22;11794;49.730;10.088;2023-08-08T07:55:24;18.20;99.90
23251;DHT22;11794;49.730;10.088;2023-08-08T07:57:50;18.40;99.90
23251;DHT22;11794;49.730;10.088;2023-08-08T08:00:15;18.80;99.90
23251;DHT22;11794;49.730;10.088;2023-08-08T08:02:44;19.00;99.90
23251;DHT22;11794;49.730;10.088;2023-08-08T08:05:10;19.50;99.90
23251;DHT22;11794;49.730;10.088;2023-08-08T08:07:36;20.10;99.90
23251;DHT22;11794;49.730;10.088;2023-08-08T08:10:03;20.30;99.90
23251;DHT22;11794;49.730;10.088;2023-08-08T08:12:29;20.70;99.90
23251;DHT22;11794;49.730;10.088;2023-08-08T08:14:55;20.80;99.90
23251;DHT22;11794;49.730;10.088;2023-08-08T08:17:20;21.00;99.90
23251;DHT22;11794;49.730;10.088;2023-08-08T08:19:46;21.50;99.90
23251;DHT22;11794;49.730;10.088;2023-08-08T08:22:11;22.00;99.90
23251;DHT22;11794;49.730;10.088;2023-08-08T08:24:37;22.30;99.90
23251;DHT22;11794;49.730;10.088;2023-08-08T08:27:03;22.00;99.90
23251;DHT22;11794;49.730;10.088;2023-08-08T08:29:28;22.00;99.90
23251;DHT22;11794;49.730;10.088;2023-08-08T08:31:54;22.60;99.90
23251;DHT22;11794;49.730;10.088;2023-08-08T08:34:19;22.70;99.90
23251;DHT22;11794;49.730;10.088;2023-08-08T08:36:45;22.80;99.90
23251;DHT22;11794;49.730;10.088;2023-08-08T08:39:10;22.40;99.90
23251;DHT22;11794;49.730;10.088;2023-08-08T08:41:36;21.80;99.90
23251;DHT22;11794;49.730;10.088;2023-08-08T08:44:04;21.60;99.90
23251;DHT22;11794;49.730;10.088;2023-08-08T08:46:31;22.20;99.90
23251;DHT22;11794;49.730;10.088;2023-08-08T08:48:58;22.80;99.90
23251;DHT22;11794;49.730;10.088;2023-08-08T08:51:25;22.90;99.90
23251;DHT22;11794;49.730;10.088;2023-08-08T08:53:51;22.80;99.90
23251;DHT22;11794;49.730;10.088;2023-08-08T08:56:17;22.20;99.90
23251;DHT22;11794;49.730;10.088;2023-08-08T08:58:43;22.20;99.90
23251;DHT22;11794;49.730;10.088;2023-08-08T09:01:09;22.60;99.90
23251;DHT22;11794;49.730;10.088;2023-08-08T09:03:35;22.80;99.90
23251;DHT22;11794;49.730;10.088;2023-08-08T09:06:01;23.00;99.90
23251;DHT22;11794;49.730;10.088;2023-08-08T09:08:28;23.10;99.90
23251;DHT22;11794;49.730;10.088;2023-08-08T09:10:55;23.10;99.90
23251;DHT22;11794;49.730;10.088;2023-08-08T09:13:22;22.80;99.90
23251;DHT22;11794;49.730;10.088;2023-08-08T09:15:48;22.40;99.90
23251;DHT22;11794;49.730;10.088;2023-08-08T09:18:16;22.50;99.90
23251;DHT22;11794;49.730;10.088;2023-08-08T09:20:47;23.00;99.90
23251;DHT22;11794;49.730;10.088;2023-08-08T09:23:14;23.70;99.90
23251;DHT22;11794;49.730;10.088;2023-08-08T09:25:39;24.00;99.90
23251;DHT22;11794;49.730;10.088;2023-08-08T09:28:05;24.30;99.90
23251;DHT22;11794;49.730;10.088;2023-08-08T09:30:31;24.30;99.90
23251;DHT22;11794;49.730;10.088;2023-08-08T09:33:03;24.40;99.90
23251;DHT22;11794;49.730;10.088;2023-08-08T09:35:29;24.50;99.90
23251;DHT22;11794;49.730;10.088;2023-08-08T09:37:55;24.70;99.90
23251;DHT22;11794;49.730;10.088;2023-08-08T09:40:22;24.00;97.70
23251;DHT22;11794;49.730;10.088;2023-08-08T09:42:51;24.10;99.90
23251;DHT22;11794;49.730;10.088;2023-08-08T09:45:17;24.30;99.90
23251;DHT22;11794;49.730;10.088;2023-08-08T09:47:42;24.10;99.90
23251;DHT22;11794;49.730;10.088;2023-08-08T09:50:08;24.30;99.90
23251;DHT22;11794;49.730;10.088;2023-08-08T09:52:34;24.30;99.80
23251;DHT22;11794;49.730;10.088;2023-08-08T09:55:01;24.00;99.90
23251;DHT22;11794;49.730;10.088;2023-08-08T09:57:27;23.90;97.50
23251;DHT22;11794;49.730;10.088;2023-08-08T09:59:52;23.80;98.20
23251;DHT22;11794;49.730;10.088;2023-08-08T10:02:18;23.70;98.40
23251;DHT22;11794;49.730;10.088;2023-08-08T10:04:45;23.10;98.10
23251;DHT22;11794;49.730;10.088;2023-08-08T10:07:11;22.70;98.60
23251;DHT22;11794;49.730;10.088;2023-08-08T10:09:37;22.50;99.90
23251;DHT22;11794;49.730;10.088;2023-08-08T10:12:04;22.90;99.90
23251;DHT22;11794;49.730;10.088;2023-08-08T10:14:32;23.20;99.90
23251;DHT22;11794;49.730;10.088;2023-08-08T10:16:57;23.30;99.90
23251;DHT22;11794;49.730;10.088;2023-08-08T10:19:24;23.20;99.70
23251;DHT22;11794;49.730;10.088;2023-08-08T10:21:59;23.30;99.90
23251;DHT22;11794;49.730;10.088;2023-08-08T10:24:24;23.50;99.60
23251;DHT22;11794;49.730;10.088;2023-08-08T10:26:57;23.80;97.80
23251;DHT22;11794;49.730;10.088;2023-08-08T10:29:26;23.60;97.60
23251;DHT22;11794;49.730;10.088;2023-08-08T10:32:00;23.60;98.60
23251;DHT22;11794;49.730;10.088;2023-08-08T10:34:46;23.40;97.80
23251;DHT22;11794;49.730;10.088;2023-08-08T10:37:14;23.70;99.40
23251;DHT22;11794;49.730;10.088;2023-08-08T10:39:53;23.50;97.60
23251;DHT22;11794;49.730;10.088;2023-08-08T10:42:21;23.40;99.90
23251;DHT22;11794;49.730;10.088;2023-08-08T10:44:55;23.30;98.40
23251;DHT22;11794;49.730;10.088;2023-08-08T10:47:26;23.30;97.00
23251;DHT22;11794;49.730;10.088;2023-08-08T10:50:07;23.30;99.00
23251;DHT22;11794;49.730;10.088;2023-08-08T10:55:31;23.10;99.20
23251;DHT22;11794;49.730;10.088;2023-08-08T10:58:06;22.90;99.20
23251;DHT22;11794;49.730;10.088;2023-08-08T11:00:33;22.90;99.90
23251;DHT22;11794;49.730;10.088;2023-08-08T11:03:00;23.30;98.40
23251;DHT22;11794;49.730;10.088;2023-08-08T11:05:28;23.60;99.90
23251;DHT22;11794;49.730;10.088;2023-08-08T11:07:55;23.60;99.90
23251;DHT22;11794;49.730;10.088;2023-08-08T11:10:21;23.80;99.80
23251;DHT22;11794;49.730;10.088;2023-08-08T11:12:56;23.80;98.60
23251;DHT22;11794;49.730;10.088;2023-08-08T11:15:22;24.20;98.50
23251;DHT22;11794;49.730;10.088;2023-08-08T11:17:48;24.00;97.90
23251;DHT22;11794;49.730;10.088;2023-08-08T11:20:14;24.30;98.60
23251;DHT22;11794;49.730;10.088;2023-08-08T11:22:39;24.30;97.90
23251;DHT22;11794;49.730;10.088;2023-08-08T11:25:05;23.70;97.10
23251;DHT22;11794;49.730;10.088;2023-08-08T11:27:33;24.20;98.70
23251;DHT22;11794;49.730;10.088;2023-08-08T11:29:58;24.30;97.30
23251;DHT22;11794;49.730;10.088;2023-08-08T11:32:27;24.00;98.20
23251;DHT22;11794;49.730;10.088;2023-08-08T11:34:54;24.20;97.30
23251;DHT22;11794;49.730;10.088;2023-08-08T11:37:20;24.50;97.30
23251;DHT22;11794;49.730;10.088;2023-08-08T11:39:45;24.60;97.50
23251;DHT22;11794;49.730;10.088;2023-08-08T11:42:11;24.50;98.20
23251;DHT22;11794;49.730;10.088;2023-08-08T11:44:37;24.30;98.10
23251;DHT22;11794;49.730;10.088;2023-08-08T11:47:03;24.30;97.90
23251;DHT22;11794;49.730;10.088;2023-08-08T11:49:29;23.90;97.80
23251;DHT22;11794;49.730;10.088;2023-08-08T11:51:54;23.40;99.30
23251;DHT22;11794;49.730;10.088;2023-08-08T11:54:27;23.60;98.90
23251;DHT22;11794;49.730;10.088;2023-08-08T11:56:53;24.10;99.30
23251;DHT22;11794;49.730;10.088;2023-08-08T11:59:19;24.50;99.40
23251;DHT22;11794;49.730;10.088;2023-08-08T12:01:45;24.50;98.40
23251;DHT22;11794;49.730;10.088;2023-08-08T12:04:10;24.30;99.30
23251;DHT22;11794;49.730;10.088;2023-08-08T12:06:40;24.40;98.00
23251;DHT22;11794;49.730;10.088;2023-08-08T12:09:06;24.40;97.30
23251;DHT22;11794;49.730;10.088;2023-08-08T12:11:35;24.20;98.30
23251;DHT22;11794;49.730;10.088;2023-08-08T12:14:01;24.40;97.60
23251;DHT22;11794;49.730;10.088;2023-08-08T12:16:29;24.10;98.10
23251;DHT22;11794;49.730;10.088;2023-08-08T12:19:00;24.10;97.80
23251;DHT22;11794;49.730;10.088;2023-08-08T12:21:25;24.20;99.60
23251;DHT22;11794;49.730;10.088;2023-08-08T12:23:51;24.70;98.10
23251;DHT22;11794;49.730;10.088;2023-08-08T12:26:17;24.80;94.70
23251;DHT22;11794;49.730;10.088;2023-08-08T12:28:43;24.60;96.30
23251;DHT22;11794;49.730;10.088;2023-08-08T12:31:08;25.00;96.10
23251;DHT22;11794;49.730;10.088;2023-08-08T12:33:34;24.70;95.70
23251;DHT22;11794;49.730;10.088;2023-08-08T12:35:59;24.40;97.90
23251;DHT22;11794;49.730;10.088;2023-08-08T12:38:25;24.80;96.70
23251;DHT22;11794;49.730;10.088;2023-08-08T12:40:50;24.60;96.60
23251;DHT22;11794;49.730;10.088;2023-08-08T12:43:16;24.60;97.20
23251;DHT22;11794;49.730;10.088;2023-08-08T12:45:45;24.20;96.60
23251;DHT22;11794;49.730;10.088;2023-08-08T12:48:11;23.50;96.80
23251;DHT22;11794;49.730;10.088;2023-08-08T12:50:37;23.30;97.30
23251;DHT22;11794;49.730;10.088;2023-08-08T12:53:03;23.60;97.80
23251;DHT22;11794;49.730;10.088;2023-08-08T12:55:30;23.80;98.60
23251;DHT22;11794;49.730;10.088;2023-08-08T12:57:55;23.70;97.70
23251;DHT22;11794;49.730;10.088;2023-08-08T13:00:21;23.50;96.90
23251;DHT22;11794;49.730;10.088;2023-08-08T13:02:47;23.40;96.60
23251;DHT22;11794;49.730;10.088;2023-08-08T13:05:12;23.40;98.50
23251;DHT22;11794;49.730;10.088;2023-08-08T13:07:38;23.80;98.90
23251;DHT22;11794;49.730;10.088;2023-08-08T13:10:04;24.20;98.20
23251;DHT22;11794;49.730;10.088;2023-08-08T13:12:30;24.70;98.20
23251;DHT22;11794;49.730;10.088;2023-08-08T13:14:56;25.60;95.90
23251;DHT22;11794;49.730;10.088;2023-08-08T13:17:21;26.40;94.10
23251;DHT22;11794;49.730;10.088;2023-08-08T13:19:47;27.00;94.70
23251;DHT22;11794;49.730;10.088;2023-08-08T13:22:12;27.00;94.10
23251;DHT22;11794;49.730;10.088;2023-08-08T13:24:38;25.40;93.40
23251;DHT22;11794;49.730;10.088;2023-08-08T13:27:04;24.40;95.70
23251;DHT22;11794;49.730;10.088;2023-08-08T13:29:30;23.80;95.20
23251;DHT22;11794;49.730;10.088;2023-08-08T13:31:56;23.20;96.90
23251;DHT22;11794;49.730;10.088;2023-08-08T13:34:21;22.90;96.00
23251;DHT22;11794;49.730;10.088;2023-08-08T13:36:47;23.10;97.30
23251;DHT22;11794;49.730;10.088;2023-08-08T13:39:12;23.10;97.60
23251;DHT22;11794;49.730;10.088;2023-08-08T13:41:39;23.00;98.50
23251;DHT22;11794;49.730;10.088;2023-08-08T13:44:04;23.50;98.50
23251;DHT22;11794;49.730;10.088;2023-08-08T13:46:30;23.90;96.10
23251;DHT22;11794;49.730;10.088;2023-08-08T13:48:55;23.70;96.30
23251;DHT22;11794;49.730;10.088;2023-08-08T13:51:21;23.30;96.10
23251;DHT22;11794;49.730;10.088;2023-08-08T13:53:46;22.70;96.90
23251;DHT22;11794;49.730;10.088;2023-08-08T13:56:14;22.30;97.80
23251;DHT22;11794;49.730;10.088;2023-08-08T13:58:40;22.10;97.60
23251;DHT22;11794;49.730;10.088;2023-08-08T14:01:06;22.50;99.40
23251;DHT22;11794;49.730;10.088;2023-08-08T14:03:32;22.70;98.20
23251;DHT22;11794;49.730;10.088;2023-08-08T14:05:57;22.50;98.80
23251;DHT22;11794;49.730;10.088;2023-08-08T14:08:23;22.40;99.80
23251;DHT22;11794;49.730;10.088;2023-08-08T14:10:48;23.10;97.90
23251;DHT22;11794;49.730;10.088;2023-08-08T14:13:14;24.60;97.20
23251;DHT22;11794;49.730;10.088;2023-08-08T14:15:40;25.10;94.50
23251;DHT22;11794;49.730;10.088;2023-08-08T14:18:06;25.20;96.10
23251;DHT22;11794;49.730;10.088;2023-08-08T14:20:32;25.50;94.60
23251;DHT22;11794;49.730;10.088;2023-08-08T14:22:57;25.00;95.20
23251;DHT22;11794;49.730;10.088;2023-08-08T14:25:23;24.30;95.20
23251;DHT22;11794;49.730;10.088;2023-08-08T14:27:49;23.40;95.20
23251;DHT22;11794;49.730;10.088;2023-08-08T14:30:14;22.80;97.30
23251;DHT22;11794;49.730;10.088;2023-08-08T14:32:40;22.30;97.50
23251;DHT22;11794;49.730;10.088;2023-08-08T14:35:06;22.20;98.20
23251;DHT22;11794;49.730;10.088;2023-08-08T14:37:34;22.30;98.20
23251;DHT22;11794;49.730;10.088;2023-08-08T14:40:00;22.40;97.40
23251;DHT22;11794;49.730;10.088;2023-08-08T14:42:26;22.00;98.50
23251;DHT22;11794;49.730;10.088;2023-08-08T14:44:51;21.70;97.50
23251;DHT22;11794;49.730;10.088;2023-08-08T14:47:17;21.20;98.30
23251;DHT22;11794;49.730;10.088;2023-08-08T14:49:42;21.10;98.90
23251;DHT22;11794;49.730;10.088;2023-08-08T14:52:08;20.90;98.90
23251;DHT22;11794;49.730;10.088;2023-08-08T14:54:34;20.90;99.10
23251;DHT22;11794;49.730;10.088;2023-08-08T14:57:00;20.80;99.20
23251;DHT22;11794;49.730;10.088;2023-08-08T14:59:27;20.70;98.70
23251;DHT22;11794;49.730;10.088;2023-08-08T15:01:52;20.70;98.90
23251;DHT22;11794;49.730;10.088;2023-08-08T15:04:18;20.70;99.40
23251;DHT22;11794;49.730;10.088;2023-08-08T15:06:44;20.60;99.40
23251;DHT22;11794;49.730;10.088;2023-08-08T15:09:09;20.50;99.90
23251;DHT22;11794;49.730;10.088;2023-08-08T15:11:35;20.70;99.50
23251;DHT22;11794;49.730;10.088;2023-08-08T15:14:00;20.90;99.40